Portada
METAR-TAF:

METAR-TAF

Aeroports :

Lençóis, Bahia, Brasil

latitud: 12-29-00S, longitud: 041-16-23W, altitud: 511 m

Observació

L'informe es va fer fa 5 hores i 39 minuts, a les 19:00 UTC
Vent 4 kt del Nord/Nord-Est
Temperatura 21°C
Humitat 88%
Pressió 1017 hPa
Visibilitat 10 km o més
Cel ennuvolat a una alçada de 3100 ft
Cel ennuvolat a una alçada de 3700 ft
Cel cobert a una alçada de 4500 ft
pluja

METAR: SBLE 121900Z AUTO 03004KT 9999 -RA BKN031 BKN037 OVC045 21/19 Q1017

Hora: 21:39 (00:39 UTC)


TAF: manca

Observacions i pronòstics meteorològics de més de 4000 aeroports (METAR i TAF).

Les estacions disponibles són els punts grocs i vermells al mapa.

Posi el ratolí al punt desitjat per veure el nom de l'estació.

Feu clic per veure les observacions i els pronòstics meteorològics.

Per canviar el mapa: feu clic els botons verds amb una creu de color negre per apropar; al botó verd amb un guió per allunyar la imatge; o en les fletxes verdes per a mapes adjacents.


METAR-TAF: